Time;durP1;ratioP1;P1;durP2;ratioP2;P2;SDS_P1;SDS_P2;PMS_P1;PMS_P2;Temp;Humidity;BMP_temperature;BMP_pressure;BME280_temperature;BME280_humidity;BME280_pressure;Samples;Min_cycle;Max_cycle;Signal;HPM_P1;HPM_P2
2023/08/20 00:02:02;;;;;;;4.25;2.60;;;;;;;;;;4410930;32;59120;-57
2023/08/20 00:04:49;;;;;;;3.87;2.50;;;;;;;;;;4410604;32;71720;-57
2023/08/20 00:07:36;;;;;;;3.15;2.45;;;;;;;;;;4410583;32;64683;-58
2023/08/20 00:10:23;;;;;;;3.42;2.50;;;;;;;;;;4409473;32;66626;-58
2023/08/20 00:13:09;;;;;;;3.58;2.50;;;;;;;;;;4410970;32;59225;-57
2023/08/20 00:15:56;;;;;;;4.60;2.70;;;;;;;;;;4410260;32;69844;-58
2023/08/20 00:18:43;;;;;;;3.17;2.50;;;;;;;;;;4398529;32;68962;-58
2023/08/20 00:21:29;;;;;;;4.00;2.62;;;;;;;;;;4397632;32;67472;-58
2023/08/20 00:24:16;;;;;;;;;;;;;;;;;;4410571;32;71621;-57
2023/08/20 00:27:03;;;;;;;7.43;2.97;;;;;;;;;;4410807;32;65233;-58
2023/08/20 00:29:49;;;;;;;5.45;2.72;;;;;;;;;;4408515;32;68872;-57
2023/08/20 00:32:36;;;;;;;4.03;2.90;;;;;;;;;;4410178;32;66691;-59
2023/08/20 00:35:23;;;;;;;3.30;2.55;;;;;;;;;;4398099;32;71475;-57
2023/08/20 00:38:10;;;;;;;4.62;2.90;;;;;;;;;;4407988;32;67172;-57
2023/08/20 00:40:56;;;;;;;;;;;;;;;;;;4410492;32;67924;-58
2023/08/20 00:43:43;;;;;;;3.28;2.45;;;;;;;;;;4408706;32;59268;-57
2023/08/20 00:46:30;;;;;;;3.95;2.60;;;;;;;;;;4410055;32;70503;-56
2023/08/20 00:49:18;;;;;;;5.28;2.72;;;;;;;;;;4394959;32;68381;-58
2023/08/20 00:52:06;;;;;;;3.08;2.45;;;;;;;;;;4398573;32;67445;-58
2023/08/20 00:54:52;;;;;;;4.85;2.75;;;;;;;;;;4400322;32;59743;-57
2023/08/20 00:57:39;;;;;;;3.87;2.47;;;;;;;;;;4398800;32;70451;-58
2023/08/20 01:00:25;;;;;;;3.70;2.75;;;;;;;;;;4400043;32;69209;-57
2023/08/20 01:03:13;;;;;;;4.05;2.80;;;;;;;;;;4398740;32;66715;-57
2023/08/20 01:06:15;;;;;;;5.47;2.72;;;;;;;;;;4399785;32;71518;-58
2023/08/20 01:09:29;;;;;;;3.65;2.80;;;;;;;;;;4399701;32;66464;-57
2023/08/20 01:12:18;;;;;;;4.03;2.60;;;;;;;;;;4399518;32;66343;-57
2023/08/20 01:15:04;;;;;;;4.18;2.70;;;;;;;;;;4398750;32;60259;-57
2023/08/20 01:17:51;;;;;;;3.25;2.40;;;;;;;;;;4399237;32;70465;-57
2023/08/20 01:20:39;;;;;;;;;;;;;;;;;;4398623;32;65510;-57
2023/08/20 01:23:38;;;;;;;3.45;2.47;;;;;;;;;;4397804;32;68694;-57
2023/08/20 01:26:57;;;;;;;3.72;2.40;;;;;;;;;;4399706;32;59974;-58
2023/08/20 01:29:44;;;;;;;4.97;2.87;;;;;;;;;;4398052;32;70722;-57
2023/08/20 01:32:30;;;;;;;4.68;2.37;;;;;;;;;;4386764;32;69825;-57
2023/08/20 01:35:17;;;;;;;4.75;2.80;;;;;;;;;;4398309;32;67769;-58
2023/08/20 01:38:04;;;;;;;4.20;2.60;;;;;;;;;;4398755;32;70701;-57
2023/08/20 01:40:51;;;;;;;3.40;2.62;;;;;;;;;;4397966;32;65639;-57
2023/08/20 01:43:40;;;;;;;3.10;2.50;;;;;;;;;;4387468;32;67712;-57
2023/08/20 01:46:28;;;;;;;4.57;2.60;;;;;;;;;;4399185;32;67319;-58
2023/08/20 01:49:15;;;;;;;5.72;2.70;;;;;;;;;;4399050;32;71698;-58
2023/08/20 01:52:02;;;;;;;5.32;2.50;;;;;;;;;;4397970;32;65864;-59
2023/08/20 01:54:49;;;;;;;9.45;4.03;;;;;;;;;;4399117;32;66759;-57
2023/08/20 01:57:36;;;;;;;8.57;4.10;;;;;;;;;;4397439;32;61466;-57
2023/08/20 02:00:23;;;;;;;8.05;3.58;;;;;;;;;;4397460;32;69618;-58
2023/08/20 02:03:09;;;;;;;7.07;3.75;;;;;;;;;;4398606;32;69284;-58
2023/08/20 02:05:56;;;;;;;7.30;4.05;;;;;;;;;;4398962;32;67429;-57
2023/08/20 02:08:43;;;;;;;6.78;3.80;;;;;;;;;;4398068;32;59842;-57
2023/08/20 02:11:32;;;;;;;5.95;3.50;;;;;;;;;;4386791;32;69467;-57
2023/08/20 02:14:19;;;;;;;5.72;3.40;;;;;;;;;;4397141;32;70828;-58
2023/08/20 02:17:06;;;;;;;5.50;3.25;;;;;;;;;;4397708;32;67403;-57
2023/08/20 02:19:53;;;;;;;6.65;3.60;;;;;;;;;;4397321;32;71914;-58
2023/08/20 02:22:39;;;;;;;;;;;;;;;;;;4397468;32;67392;-57
2023/08/20 02:25:26;;;;;;;5.47;3.30;;;;;;;;;;4399103;32;66980;-58
2023/08/20 02:28:15;;;;;;;5.50;2.78;;;;;;;;;;4399009;32;60139;-58
2023/08/20 02:31:05;;;;;;;4.80;2.80;;;;;;;;;;4398504;32;70477;-57
2023/08/20 02:33:53;;;;;;;3.85;2.60;;;;;;;;;;4398852;32;66438;-57
2023/08/20 02:36:39;;;;;;;5.18;2.55;;;;;;;;;;4397406;32;66597;-57
2023/08/20 02:39:26;;;;;;;6.80;3.10;;;;;;;;;;4398194;32;59801;-58
2023/08/20 02:42:13;;;;;;;4.47;2.62;;;;;;;;;;4396689;32;71651;-57
2023/08/20 02:44:59;;;;;;;4.22;2.53;;;;;;;;;;4398354;32;68520;-57
2023/08/20 02:47:45;;;;;;;6.10;2.78;;;;;;;;;;4397090;32;67731;-58
2023/08/20 02:50:32;;;;;;;4.97;2.47;;;;;;;;;;4397274;32;70801;-57
2023/08/20 02:53:19;;;;;;;4.72;2.42;;;;;;;;;;4398273;32;66149;-58
2023/08/20 02:56:06;;;;;;;4.68;2.55;;;;;;;;;;4398551;32;67496;-58
2023/08/20 02:58:53;;;;;;;4.57;2.55;;;;;;;;;;4397153;32;67823;-57
2023/08/20 03:01:39;;;;;;;;;;;;;;;;;;4398633;32;71071;-57
2023/08/20 03:04:26;;;;;;;4.53;2.75;;;;;;;;;;4398453;32;66146;-58
2023/08/20 03:07:12;;;;;;;4.30;2.55;;;;;;;;;;4374813;32;68209;-58
2023/08/20 03:09:59;;;;;;;4.15;2.28;;;;;;;;;;4398483;32;59034;-58
2023/08/20 03:12:45;;;;;;;3.55;2.30;;;;;;;;;;4396483;32;69435;-58
2023/08/20 03:15:32;;;;;;;;;;;;;;;;;;4398493;32;68967;-58
2023/08/20 03:18:18;;;;;;;4.18;2.50;;;;;;;;;;4397083;32;67506;-57
2023/08/20 03:21:05;;;;;;;4.25;2.60;;;;;;;;;;4398258;32;72153;-58
2023/08/20 03:23:51;;;;;;;;;;;;;;;;;;4386530;32;69245;-57
2023/08/20 03:26:38;;;;;;;3.15;2.42;;;;;;;;;;4396997;32;69010;-57
2023/08/20 03:29:27;;;;;;;3.33;2.30;;;;;;;;;;4386198;32;66568;-58
2023/08/20 03:32:13;;;;;;;4.03;2.40;;;;;;;;;;4397971;32;70804;-58
2023/08/20 03:35:00;;;;;;;4.75;2.45;;;;;;;;;;4396389;32;66897;-57
2023/08/20 03:37:47;;;;;;;4.28;2.80;;;;;;;;;;4396179;32;66507;-58
2023/08/20 03:40:33;;;;;;;4.55;2.80;;;;;;;;;;4396822;32;59580;-57
2023/08/20 03:43:20;;;;;;;5.80;2.70;;;;;;;;;;4396636;32;70672;-57
2023/08/20 03:46:06;;;;;;;;;;;;;;;;;;4396857;32;69217;-58
2023/08/20 03:48:53;;;;;;;3.43;2.40;;;;;;;;;;4397997;32;67005;-58
2023/08/20 03:51:40;;;;;;;4.45;2.60;;;;;;;;;;4398188;32;60121;-57
2023/08/20 03:54:28;;;;;;;4.03;2.70;;;;;;;;;;4385181;32;70926;-58
2023/08/20 03:57:14;;;;;;;5.43;3.10;;;;;;;;;;4397719;32;69858;-57
2023/08/20 04:00:02;;;;;;;8.40;3.28;;;;;;;;;;4397618;32;67259;-57
2023/08/20 04:03:01;;;;;;;8.07;3.15;;;;;;;;;;4397441;32;70619;-58
2023/08/20 04:05:51;;;;;;;5.05;3.22;;;;;;;;;;4397838;32;65007;-58
2023/08/20 04:08:37;;;;;;;7.87;3.20;;;;;;;;;;4385703;32;67886;-58
2023/08/20 04:11:23;;;;;;;9.65;3.83;;;;;;;;;;4396352;32;59345;-57
2023/08/20 04:14:10;;;;;;;;;;;;;;;;;;4396693;32;71778;-58
2023/08/20 04:16:57;;;;;;;10.30;3.60;;;;;;;;;;4397806;32;65360;-57
2023/08/20 04:19:44;;;;;;;7.57;4.25;;;;;;;;;;4397371;32;68213;-58
2023/08/20 04:22:31;;;;;;;8.68;4.15;;;;;;;;;;4397858;32;60088;-57
2023/08/20 04:25:18;;;;;;;8.02;4.00;;;;;;;;;;4398752;32;70315;-58
2023/08/20 04:28:04;;;;;;;7.22;4.28;;;;;;;;;;4398308;32;68992;-58
2023/08/20 04:30:54;;;;;;;7.70;4.20;;;;;;;;;;4387312;32;67378;-58
2023/08/20 04:33:42;;;;;;;9.57;4.18;;;;;;;;;;4400199;32;70985;-57
2023/08/20 04:36:28;;;;;;;11.02;5.28;;;;;;;;;;4399835;32;70438;-58
2023/08/20 04:39:15;;;;;;;7.00;4.53;;;;;;;;;;4399355;32;69437;-57
2023/08/20 04:42:02;;;;;;;8.30;4.20;;;;;;;;;;4399880;32;67508;-57
2023/08/20 04:44:49;;;;;;;8.00;4.03;;;;;;;;;;4399752;32;71623;-58
2023/08/20 04:47:36;;;;;;;8.02;4.43;;;;;;;;;;4398785;32;65592;-57
2023/08/20 04:50:24;;;;;;;7.60;4.53;;;;;;;;;;4399906;32;67326;-59
2023/08/20 04:53:10;;;;;;;8.15;4.40;;;;;;;;;;4399826;32;59885;-57
2023/08/20 04:55:58;;;;;;;6.50;3.47;;;;;;;;;;4397880;32;71350;-57
2023/08/20 04:58:45;;;;;;;4.70;2.72;;;;;;;;;;4398326;32;69143;-57
2023/08/20 05:01:33;;;;;;;7.10;3.30;;;;;;;;;;4399706;32;67774;-58
2023/08/20 05:04:21;;;;;;;4.00;3.10;;;;;;;;;;4398176;32;61086;-57
2023/08/20 05:07:07;;;;;;;3.50;2.53;;;;;;;;;;4399521;32;70200;-57
2023/08/20 05:09:54;;;;;;;4.75;2.70;;;;;;;;;;4399658;32;68177;-58
2023/08/20 05:12:41;;;;;;;8.45;3.53;;;;;;;;;;4399790;32;66780;-57
2023/08/20 05:15:28;;;;;;;10.90;4.10;;;;;;;;;;4399442;32;71624;-58
2023/08/20 05:18:15;;;;;;;16.40;3.62;;;;;;;;;;4399718;32;64959;-58
2023/08/20 05:21:02;;;;;;;11.27;3.70;;;;;;;;;;4397594;32;68299;-57
2023/08/20 05:23:48;;;;;;;12.98;4.15;;;;;;;;;;4399696;32;60328;-57
2023/08/20 05:26:35;;;;;;;7.00;3.12;;;;;;;;;;4399219;32;70634;-57
2023/08/20 05:29:22;;;;;;;5.37;2.40;;;;;;;;;;4398121;32;64792;-57
2023/08/20 05:32:08;;;;;;;4.97;2.70;;;;;;;;;;4398136;32;67928;-58
2023/08/20 05:34:55;;;;;;;7.18;2.67;;;;;;;;;;4398251;32;59050;-58
2023/08/20 05:37:42;;;;;;;5.20;2.55;;;;;;;;;;4398881;32;70390;-57
2023/08/20 05:40:28;;;;;;;5.20;2.60;;;;;;;;;;4399237;32;68344;-58
2023/08/20 05:43:15;;;;;;;8.50;2.40;;;;;;;;;;4398108;32;66726;-57
2023/08/20 05:46:01;;;;;;;3.65;2.72;;;;;;;;;;4399257;32;71212;-57
2023/08/20 05:48:48;;;;;;;3.78;2.45;;;;;;;;;;4398112;32;66511;-57
2023/08/20 05:51:35;;;;;;;5.78;2.62;;;;;;;;;;4397455;32;69135;-57
2023/08/20 05:54:21;;;;;;;4.22;2.53;;;;;;;;;;4397901;32;66645;-57
2023/08/20 05:57:09;;;;;;;5.65;2.92;;;;;;;;;;4397964;32;71767;-57
2023/08/20 05:59:59;;;;;;;5.03;2.85;;;;;;;;;;4398238;32;65930;-57
2023/08/20 06:02:46;;;;;;;4.10;2.83;;;;;;;;;;4397841;32;68066;-57
2023/08/20 06:05:33;;;;;;;4.03;2.80;;;;;;;;;;4399294;32;60477;-58
2023/08/20 06:08:19;;;;;;;4.82;2.40;;;;;;;;;;4398859;32;70577;-58
2023/08/20 06:11:06;;;;;;;5.28;2.75;;;;;;;;;;4398925;32;69456;-58
2023/08/20 06:13:52;;;;;;;;;;;;;;;;;;4399179;32;67745;-57
2023/08/20 06:16:39;;;;;;;5.50;2.70;;;;;;;;;;4399303;32;59043;-57
2023/08/20 06:19:25;;;;;;;5.65;2.87;;;;;;;;;;4398512;32;70468;-58
2023/08/20 06:22:12;;;;;;;3.90;2.70;;;;;;;;;;4398701;32;68963;-57
2023/08/20 06:24:58;;;;;;;4.62;2.60;;;;;;;;;;4386799;32;66667;-56
2023/08/20 06:27:45;;;;;;;4.00;2.90;;;;;;;;;;4398457;32;71332;-56
2023/08/20 06:30:31;;;;;;;;;;;;;;;;;;4397667;32;65779;-57
2023/08/20 06:33:18;;;;;;;3.70;2.63;;;;;;;;;;4398792;32;67842;-58
2023/08/20 06:36:04;;;;;;;5.82;2.90;;;;;;;;;;4398885;32;60225;-57
2023/08/20 06:38:51;;;;;;;4.28;2.65;;;;;;;;;;4397973;32;69639;-57
2023/08/20 06:41:38;;;;;;;;;;;;;;;;;;4397121;32;67587;-58
2023/08/20 06:44:27;;;;;;;3.80;2.55;;;;;;;;;;4398756;32;66995;-58
2023/08/20 06:47:14;;;;;;;;;;;;;;;;;;4398521;32;59083;-58
2023/08/20 06:50:01;;;;;;;8.55;2.78;;;;;;;;;;4386135;32;70825;-57
2023/08/20 06:52:48;;;;;;;3.00;2.12;;;;;;;;;;4396763;32;68890;-58
2023/08/20 06:55:36;;;;;;;5.32;2.53;;;;;;;;;;4400092;32;67450;-58
2023/08/20 06:58:25;;;;;;;3.22;2.10;;;;;;;;;;4399893;32;72007;-58
2023/08/20 07:01:22;;;;;;;6.57;3.03;;;;;;;;;;4389718;32;64971;-58
2023/08/20 07:04:09;;;;;;;4.75;2.20;;;;;;;;;;4397773;32;68264;-58
2023/08/20 07:06:56;;;;;;;4.57;2.47;;;;;;;;;;4398459;32;67565;-57
2023/08/20 07:09:42;;;;;;;3.42;2.60;;;;;;;;;;4398186;32;71769;-58
2023/08/20 07:12:29;;;;;;;2.65;1.73;;;;;;;;;;4398116;32;64991;-58
2023/08/20 07:15:15;;;;;;;3.00;2.28;;;;;;;;;;4398226;32;66953;-57
2023/08/20 07:18:02;;;;;;;4.28;1.98;;;;;;;;;;4397222;32;59934;-57
2023/08/20 07:20:51;;;;;;;3.25;2.50;;;;;;;;;;4397740;32;70407;-57
2023/08/20 07:23:38;;;;;;;3.10;2.00;;;;;;;;;;4397975;32;69062;-57
2023/08/20 07:26:24;;;;;;;;;;;;;;;;;;4398531;32;66534;-57
2023/08/20 07:29:11;;;;;;;6.62;2.37;;;;;;;;;;4397057;32;59562;-58
2023/08/20 07:31:58;;;;;;;4.10;2.72;;;;;;;;;;4398048;32;69486;-59
2023/08/20 07:34:44;;;;;;;5.25;2.92;;;;;;;;;;4397859;32;69094;-58
2023/08/20 07:37:30;;;;;;;2.47;2.12;;;;;;;;;;4397480;32;66679;-58
2023/08/20 07:40:18;;;;;;;3.92;2.70;;;;;;;;;;4397876;32;71847;-58
2023/08/20 07:43:04;;;;;;;;;;;;;;;;;;4398338;32;66233;-57
2023/08/20 07:45:50;;;;;;;3.60;2.35;;;;;;;;;;4396621;32;68118;-58
2023/08/20 07:48:37;;;;;;;3.17;2.50;;;;;;;;;;4396267;32;60729;-57
2023/08/20 07:51:23;;;;;;;3.95;3.10;;;;;;;;;;4397706;32;69298;-57
2023/08/20 07:54:10;;;;;;;;;;;;;;;;;;4398016;32;66256;-58
2023/08/20 07:56:57;;;;;;;3.67;2.10;;;;;;;;;;4396937;32;67134;-57
2023/08/20 07:59:43;;;;;;;5.28;2.58;;;;;;;;;;4386368;32;60894;-57
2023/08/20 08:02:30;;;;;;;3.55;1.92;;;;;;;;;;4400404;32;70843;-58
2023/08/20 08:05:17;;;;;;;3.33;2.78;;;;;;;;;;4400425;32;69137;-57
2023/08/20 08:08:03;;;;;;;3.80;2.50;;;;;;;;;;4399082;32;67575;-57
2023/08/20 08:10:50;;;;;;;3.30;2.72;;;;;;;;;;4387364;32;72698;-58
2023/08/20 08:13:37;;;;;;;3.17;2.62;;;;;;;;;;4399214;32;65961;-57
2023/08/20 08:16:23;;;;;;;;;;;;;;;;;;4399539;32;67846;-57
2023/08/20 08:19:10;;;;;;;2.83;2.42;;;;;;;;;;4400304;32;66589;-58
2023/08/20 08:21:57;;;;;;;3.08;2.35;;;;;;;;;;4398737;32;71451;-57
2023/08/20 08:24:43;;;;;;;3.87;2.47;;;;;;;;;;4400375;32;65696;-58
2023/08/20 08:27:30;;;;;;;6.75;2.80;;;;;;;;;;4400049;32;67667;-57
2023/08/20 08:30:17;;;;;;;4.05;2.35;;;;;;;;;;4400526;32;60262;-58
2023/08/20 08:33:03;;;;;;;2.97;2.67;;;;;;;;;;4398269;32;71609;-58
2023/08/20 08:35:49;;;;;;;7.70;3.28;;;;;;;;;;4399807;32;69545;-57
2023/08/20 08:38:37;;;;;;;3.85;2.78;;;;;;;;;;4399749;32;67580;-58
2023/08/20 08:41:23;;;;;;;3.47;2.60;;;;;;;;;;4387259;32;72790;-58
2023/08/20 08:44:11;;;;;;;6.37;2.47;;;;;;;;;;4398393;32;69653;-57
2023/08/20 08:46:57;;;;;;;3.62;2.50;;;;;;;;;;4398500;32;69099;-57
2023/08/20 08:49:47;;;;;;;3.70;2.67;;;;;;;;;;4398579;32;66879;-58
2023/08/20 08:52:33;;;;;;;4.28;2.50;;;;;;;;;;4399472;32;71673;-58
2023/08/20 08:55:20;;;;;;;4.72;2.50;;;;;;;;;;4400001;32;66243;-58
2023/08/20 08:58:07;;;;;;;2.20;2.00;;;;;;;;;;4399787;32;68139;-58
2023/08/20 09:00:53;;;;;;;4.00;2.45;;;;;;;;;;4398570;32;60059;-57
2023/08/20 09:03:40;;;;;;;3.37;2.65;;;;;;;;;;4399556;32;69483;-58
2023/08/20 09:06:48;;;;;;;3.85;2.83;;;;;;;;;;4399748;32;69249;-58
2023/08/20 09:09:34;;;;;;;2.55;2.25;;;;;;;;;;4399606;32;68332;-57
2023/08/20 09:12:21;;;;;;;2.65;2.17;;;;;;;;;;4399739;32;59209;-58
2023/08/20 09:15:11;;;;;;;3.40;2.85;;;;;;;;;;4399449;32;69487;-58
2023/08/20 09:17:59;;;;;;;5.00;2.78;;;;;;;;;;4398163;32;69784;-58
2023/08/20 09:20:51;;;;;;;3.75;2.17;;;;;;;;;;4387544;32;67022;-57
2023/08/20 09:23:38;;;;;;;4.30;2.80;;;;;;;;;;4399215;32;71530;-58
2023/08/20 09:26:24;;;;;;;3.62;2.28;;;;;;;;;;4387685;32;66016;-57
2023/08/20 09:29:11;;;;;;;4.65;2.83;;;;;;;;;;4399500;32;67060;-58
2023/08/20 09:32:02;;;;;;;3.75;2.55;;;;;;;;;;4399310;32;67638;-57
2023/08/20 09:34:52;;;;;;;4.80;2.90;;;;;;;;;;4397990;32;70705;-57
2023/08/20 09:37:39;;;;;;;5.75;3.17;;;;;;;;;;4399018;32;65959;-57
2023/08/20 09:40:26;;;;;;;3.05;2.30;;;;;;;;;;4398880;32;67081;-60
2023/08/20 09:43:15;;;;;;;3.87;3.03;;;;;;;;;;4398322;32;59297;-58
2023/08/20 09:46:03;;;;;;;5.15;3.15;;;;;;;;;;4397923;32;70441;-58
2023/08/20 09:48:49;;;;;;;4.10;3.03;;;;;;;;;;4387016;32;69129;-58
2023/08/20 09:51:37;;;;;;;4.03;3.40;;;;;;;;;;4399124;32;67931;-57
2023/08/20 09:54:54;;;;;;;4.45;2.60;;;;;;;;;;4397999;32;71626;-57
2023/08/20 09:57:42;;;;;;;4.75;3.05;;;;;;;;;;4399190;32;70929;-57
2023/08/20 10:00:28;;;;;;;4.37;3.10;;;;;;;;;;4387018;32;68806;-58
2023/08/20 10:03:15;;;;;;;3.33;2.70;;;;;;;;;;4397097;32;68641;-58
2023/08/20 10:06:03;;;;;;;6.07;3.10;;;;;;;;;;4398948;32;72221;-57
2023/08/20 10:08:51;;;;;;;3.20;2.62;;;;;;;;;;4399024;32;65080;-58
2023/08/20 10:11:38;;;;;;;4.75;2.83;;;;;;;;;;4398724;32;68178;-58
2023/08/20 10:14:24;;;;;;;4.97;3.28;;;;;;;;;;4399290;32;59861;-58
2023/08/20 10:17:11;;;;;;;;;;;;;;;;;;4387136;32;70112;-58
2023/08/20 10:19:59;;;;;;;4.45;2.80;;;;;;;;;;4398932;32;69250;-58
2023/08/20 10:22:47;;;;;;;4.18;3.40;;;;;;;;;;4398129;32;67145;-57
2023/08/20 10:25:42;;;;;;;5.90;3.30;;;;;;;;;;4397635;32;60001;-57
2023/08/20 10:28:30;;;;;;;3.72;3.08;;;;;;;;;;4398456;32;69468;-58
2023/08/20 10:31:17;;;;;;;4.10;3.35;;;;;;;;;;4398650;32;69639;-57
2023/08/20 10:34:05;;;;;;;7.45;3.00;;;;;;;;;;4385995;32;67536;-57
2023/08/20 10:36:52;;;;;;;3.67;2.65;;;;;;;;;;4398637;32;71753;-58
2023/08/20 10:39:38;;;;;;;;;;;;;;;;;;4368727;32;65754;-56
2023/08/20 10:42:28;;;;;;;3.77;2.40;;;;;;;;;;4368334;32;68295;-58
2023/08/20 10:45:14;;;;;;;5.45;3.03;;;;;;;;;;4368285;32;60641;-57
2023/08/20 10:48:01;;;;;;;5.05;2.83;;;;;;;;;;4368233;32;72063;-57
2023/08/20 10:50:47;;;;;;;;;;;;;;;;;;4377827;32;65860;-57
2023/08/20 10:53:34;;;;;;;4.57;3.60;;;;;;;;;;4368104;32;68293;-58
2023/08/20 10:56:21;;;;;;;4.45;2.97;;;;;;;;;;4368318;32;60454;-58
2023/08/20 10:59:16;;;;;;;4.35;3.17;;;;;;;;;;4366544;32;70525;-57
2023/08/20 11:02:03;;;;;;;2.87;2.50;;;;;;;;;;4366545;32;69396;-58
2023/08/20 11:04:50;;;;;;;4.43;3.10;;;;;;;;;;4377317;32;66707;-57
2023/08/20 11:07:37;;;;;;;3.70;2.70;;;;;;;;;;4368065;32;72638;-57
2023/08/20 11:10:23;;;;;;;3.00;2.70;;;;;;;;;;4368034;32;65916;-57
2023/08/20 11:13:10;;;;;;;3.92;3.10;;;;;;;;;;4378537;32;68815;-57
2023/08/20 11:15:57;;;;;;;4.10;3.15;;;;;;;;;;4367706;32;67288;-57
2023/08/20 11:18:43;;;;;;;3.87;3.05;;;;;;;;;;4367601;32;72141;-57
2023/08/20 11:21:31;;;;;;;3.58;2.87;;;;;;;;;;4366507;32;66285;-58
2023/08/20 11:24:19;;;;;;;3.90;2.80;;;;;;;;;;4378532;32;67420;-57
2023/08/20 11:27:06;;;;;;;3.37;2.28;;;;;;;;;;4366819;32;60063;-57
2023/08/20 11:29:56;;;;;;;3.40;3.00;;;;;;;;;;4367593;32;69660;-58
2023/08/20 11:32:44;;;;;;;4.55;2.83;;;;;;;;;;4366237;32;69115;-59
2023/08/20 11:35:30;;;;;;;4.65;3.47;;;;;;;;;;4367657;32;67596;-58
2023/08/20 11:38:17;;;;;;;3.50;2.85;;;;;;;;;;4381290;32;60229;-57
2023/08/20 11:41:03;;;;;;;4.93;2.83;;;;;;;;;;4396492;32;69325;-58
2023/08/20 11:43:51;;;;;;;6.25;3.78;;;;;;;;;;4397724;32;69764;-57
2023/08/20 11:46:45;;;;;;;5.45;3.28;;;;;;;;;;4396630;32;66890;-57
2023/08/20 11:49:32;;;;;;;4.87;2.53;;;;;;;;;;4396223;32;70718;-58
2023/08/20 11:52:20;;;;;;;4.82;3.25;;;;;;;;;;4396398;32;64945;-58
2023/08/20 11:55:09;;;;;;;4.82;2.72;;;;;;;;;;4397730;32;67102;-57
2023/08/20 11:57:55;;;;;;;4.03;3.37;;;;;;;;;;4396123;32;60681;-57
2023/08/20 12:00:42;;;;;;;5.53;4.00;;;;;;;;;;4397670;32;71329;-58
2023/08/20 12:03:31;;;;;;;4.62;3.53;;;;;;;;;;4396547;32;66449;-57
2023/08/20 12:06:23;;;;;;;5.95;4.95;;;;;;;;;;4385684;32;67092;-58
2023/08/20 12:09:23;;;;;;;3.87;3.30;;;;;;;;;;4397842;32;59990;-58
2023/08/20 12:12:10;;;;;;;5.05;3.60;;;;;;;;;;4395712;32;71081;-57
2023/08/20 12:14:57;;;;;;;3.97;3.30;;;;;;;;;;4396224;32;69302;-57
2023/08/20 12:17:43;;;;;;;5.93;3.15;;;;;;;;;;4397575;32;67706;-57
2023/08/20 12:20:32;;;;;;;9.05;3.62;;;;;;;;;;4396167;32;71615;-57
2023/08/20 12:23:18;;;;;;;6.10;3.40;;;;;;;;;;4398366;32;65578;-58
2023/08/20 12:26:05;;;;;;;5.28;3.60;;;;;;;;;;4397652;32;68293;-58
2023/08/20 12:28:52;;;;;;;4.53;3.15;;;;;;;;;;4397549;32;66840;-56
2023/08/20 12:31:40;;;;;;;5.87;3.30;;;;;;;;;;4396121;32;71190;-57
2023/08/20 12:34:26;;;;;;;4.28;3.37;;;;;;;;;;4397656;32;65742;-58
2023/08/20 12:37:13;;;;;;;6.47;3.05;;;;;;;;;;4397181;32;66790;-58
2023/08/20 12:39:59;;;;;;;5.15;3.50;;;;;;;;;;4397694;32;60380;-57
2023/08/20 12:42:46;;;;;;;4.85;3.35;;;;;;;;;;4395940;32;70187;-57
2023/08/20 12:45:32;;;;;;;4.55;3.47;;;;;;;;;;4397798;32;68136;-58
2023/08/20 12:48:19;;;;;;;4.57;3.30;;;;;;;;;;4399318;32;67355;-58
2023/08/20 12:51:06;;;;;;;6.70;3.12;;;;;;;;;;4399458;32;58884;-58
2023/08/20 12:53:52;;;;;;;3.72;3.10;;;;;;;;;;4368069;32;71671;-61
2023/08/20 12:56:39;;;;;;;4.62;3.03;;;;;;;;;;4402921;32;69472;-58
2023/08/20 12:59:26;;;;;;;3.80;2.97;;;;;;;;;;4402249;32;66479;-58
2023/08/20 13:02:12;;;;;;;5.05;2.95;;;;;;;;;;4399772;32;72121;-57
2023/08/20 13:04:59;;;;;;;4.45;3.22;;;;;;;;;;4399763;32;65927;-58
2023/08/20 13:07:46;;;;;;;3.72;2.97;;;;;;;;;;4399725;32;67665;-58
2023/08/20 13:10:34;;;;;;;5.57;3.47;;;;;;;;;;4387266;32;61366;-58
2023/08/20 13:13:22;;;;;;;7.10;3.53;;;;;;;;;;4399580;32;69739;-58
2023/08/20 13:16:02;;;;;;;5.15;3.25;;;;;;;;;;3847483;37;43399;-58
2023/08/20 13:18:49;;;;;;;4.57;3.12;;;;;;;;;;4411082;32;59125;-57
2023/08/20 13:21:35;;;;;;;6.12;3.20;;;;;;;;;;4411002;32;70910;-58
2023/08/20 13:24:22;;;;;;;3.83;3.15;;;;;;;;;;4410799;32;69524;-58
2023/08/20 13:27:08;;;;;;;5.22;3.20;;;;;;;;;;4409635;32;66635;-60
2023/08/20 13:29:55;;;;;;;3.78;3.28;;;;;;;;;;4397917;32;72461;-58
2023/08/20 13:32:42;;;;;;;3.87;3.05;;;;;;;;;;4409768;32;64678;-58
2023/08/20 13:35:28;;;;;;;3.62;3.03;;;;;;;;;;4410718;32;66942;-58
2023/08/20 13:38:15;;;;;;;5.50;3.40;;;;;;;;;;4409788;32;59012;-57
2023/08/20 13:41:04;;;;;;;5.57;3.37;;;;;;;;;;4410528;32;70665;-57
2023/08/20 13:43:51;;;;;;;5.65;3.00;;;;;;;;;;4410719;32;66167;-57
2023/08/20 13:46:38;;;;;;;5.05;3.20;;;;;;;;;;4409476;32;67951;-58
2023/08/20 13:49:25;;;;;;;4.62;2.85;;;;;;;;;;4410820;32;60327;-58
2023/08/20 13:52:12;;;;;;;5.20;3.15;;;;;;;;;;4408538;32;72373;-58
2023/08/20 13:54:58;;;;;;;4.25;2.90;;;;;;;;;;4382527;32;71640;-58
2023/08/20 13:57:45;;;;;;;3.58;2.80;;;;;;;;;;4393775;32;67613;-58
2023/08/20 14:00:32;;;;;;;4.18;3.37;;;;;;;;;;4393740;32;71549;-57
2023/08/20 14:03:18;;;;;;;4.32;3.00;;;;;;;;;;4394196;32;66394;-57
2023/08/20 14:06:05;;;;;;;4.40;3.08;;;;;;;;;;4395250;32;68261;-57
2023/08/20 14:08:55;;;;;;;5.65;3.22;;;;;;;;;;4393768;32;67639;-58
2023/08/20 14:11:42;;;;;;;4.28;3.15;;;;;;;;;;4382110;32;72152;-58
2023/08/20 14:14:28;;;;;;;5.70;3.20;;;;;;;;;;4393410;32;65172;-58
2023/08/20 14:17:17;;;;;;;4.18;3.25;;;;;;;;;;4393716;32;67670;-58
2023/08/20 14:20:06;;;;;;;5.07;3.40;;;;;;;;;;4393835;32;59548;-58
2023/08/20 14:22:53;;;;;;;6.22;3.15;;;;;;;;;;4393620;32;69957;-57
2023/08/20 14:25:40;;;;;;;6.53;3.22;;;;;;;;;;4379043;32;68611;-58
2023/08/20 14:28:26;;;;;;;4.70;3.37;;;;;;;;;;4372429;32;67816;-57
2023/08/20 14:31:13;;;;;;;4.03;3.05;;;;;;;;;;4384928;32;60402;-58
2023/08/20 14:33:59;;;;;;;6.70;3.70;;;;;;;;;;4382559;32;71768;-57
2023/08/20 14:36:46;;;;;;;3.87;3.20;;;;;;;;;;4361616;32;69479;-58
2023/08/20 14:39:33;;;;;;;4.35;3.12;;;;;;;;;;4384909;32;67464;-58
2023/08/20 14:42:20;;;;;;;5.68;3.37;;;;;;;;;;4383017;32;71650;-57
2023/08/20 14:45:06;;;;;;;;;;;;;;;;;;4383657;32;64648;-58
2023/08/20 14:47:54;;;;;;;3.97;3.10;;;;;;;;;;4384700;32;67139;-58
2023/08/20 14:50:40;;;;;;;4.03;3.05;;;;;;;;;;4384470;32;60156;-58
2023/08/20 14:53:27;;;;;;;4.25;3.15;;;;;;;;;;4382710;32;70527;-58
2023/08/20 14:56:13;;;;;;;4.22;3.10;;;;;;;;;;4372314;32;64992;-57
2023/08/20 14:59:01;;;;;;;3.37;2.78;;;;;;;;;;4382867;32;66514;-58
2023/08/20 15:01:50;;;;;;;5.07;3.53;;;;;;;;;;4384464;32;60307;-57
2023/08/20 15:04:36;;;;;;;4.82;3.25;;;;;;;;;;4382818;32;70299;-57
2023/08/20 15:07:23;;;;;;;4.55;3.08;;;;;;;;;;4382756;32;68918;-58
2023/08/20 15:10:10;;;;;;;4.20;3.30;;;;;;;;;;4382752;32;67238;-57
2023/08/20 15:12:57;;;;;;;3.90;3.05;;;;;;;;;;4382798;32;71610;-58
2023/08/20 15:15:44;;;;;;;4.47;2.97;;;;;;;;;;4382277;32;66145;-58
2023/08/20 15:18:35;;;;;;;4.15;3.28;;;;;;;;;;4384194;32;67457;-57
2023/08/20 15:21:21;;;;;;;5.00;3.28;;;;;;;;;;4383966;32;67221;-57
2023/08/20 15:24:08;;;;;;;;;;;;;;;;;;4382829;32;70621;-57
2023/08/20 15:26:54;;;;;;;6.27;3.17;;;;;;;;;;4384313;32;66081;-57
2023/08/20 15:29:41;;;;;;;4.90;3.17;;;;;;;;;;4382350;32;68139;-58
2023/08/20 15:32:28;;;;;;;5.25;3.05;;;;;;;;;;4383997;32;60483;-59
2023/08/20 15:35:14;;;;;;;6.25;3.78;;;;;;;;;;4382509;32;70444;-58
2023/08/20 15:38:02;;;;;;;4.62;3.35;;;;;;;;;;4370581;32;70970;-57
2023/08/20 15:40:49;;;;;;;4.68;3.53;;;;;;;;;;4382281;32;67662;-58
2023/08/20 15:43:35;;;;;;;5.60;3.90;;;;;;;;;;4383925;32;59349;-58
2023/08/20 15:46:23;;;;;;;5.80;3.60;;;;;;;;;;4360287;32;71511;-58
2023/08/20 15:49:10;;;;;;;6.85;3.47;;;;;;;;;;4381699;32;70344;-58
2023/08/20 15:51:56;;;;;;;6.90;4.30;;;;;;;;;;4382320;32;67007;-57
2023/08/20 15:54:43;;;;;;;6.55;4.97;;;;;;;;;;4381938;32;71577;-56
2023/08/20 15:57:29;;;;;;;8.45;5.47;;;;;;;;;;4382119;32;66385;-58
2023/08/20 16:00:18;;;;;;;7.20;4.60;;;;;;;;;;4382174;32;67483;-58
2023/08/20 16:03:05;;;;;;;5.80;3.90;;;;;;;;;;4382255;32;59271;-58
2023/08/20 16:05:51;;;;;;;;;;;;;;;;;;4371513;32;70694;-57
2023/08/20 16:08:38;;;;;;;5.55;3.67;;;;;;;;;;4382114;32;64241;-57
2023/08/20 16:11:25;;;;;;;5.82;3.65;;;;;;;;;;4382009;32;66768;-58
2023/08/20 16:14:12;;;;;;;5.97;3.75;;;;;;;;;;4383185;32;59760;-58
2023/08/20 16:16:58;;;;;;;5.85;3.75;;;;;;;;;;4370638;32;71946;-58
2023/08/20 16:19:45;;;;;;;6.05;3.65;;;;;;;;;;4381407;32;70180;-58
2023/08/20 16:22:31;;;;;;;6.50;3.70;;;;;;;;;;4381859;32;67716;-58
2023/08/20 16:25:18;;;;;;;6.15;3.70;;;;;;;;;;4383081;32;70765;-58
2023/08/20 16:30:46;;;;;;;5.03;3.40;;;;;;;;;;3847107;37;43920;-58
2023/08/20 16:33:33;;;;;;;6.72;3.20;;;;;;;;;;4399403;32;60608;-57
2023/08/20 16:36:19;;;;;;;6.28;3.67;;;;;;;;;;4410730;32;70485;-58
2023/08/20 16:39:05;;;;;;;7.95;3.47;;;;;;;;;;4398738;32;68299;-58
2023/08/20 16:41:52;;;;;;;5.00;3.47;;;;;;;;;;4409465;32;67854;-57
2023/08/20 16:44:39;;;;;;;8.20;3.45;;;;;;;;;;4410649;32;70907;-58
2023/08/20 16:47:25;;;;;;;;;;;;;;;;;;4411041;32;65712;-57
2023/08/20 16:50:12;;;;;;;6.25;3.67;;;;;;;;;;4409647;32;66904;-58
2023/08/20 16:52:58;;;;;;;5.62;4.62;;;;;;;;;;4410825;32;60154;-57
2023/08/20 16:55:51;;;;;;;4.85;3.80;;;;;;;;;;4409147;32;70698;-57